Time;durP1;ratioP1;P1;durP2;ratioP2;P2;SDS_P1;SDS_P2;PMS_P1;PMS_P2;Temp;Humidity;BMP_temperature;BMP_pressure;BME280_temperature;BME280_humidity;BME280_pressure;Samples;Min_cycle;Max_cycle;Signal;HPM_P1;HPM_P2
2022/05/20 00:01:46;;;;;;;9.85;3.60;;;21.70;38.10;;;;;;5056542;28;20024;-63
2022/05/20 00:04:12;;;;;;;10.35;4.15;;;21.60;38.10;;;;;;5092106;28;20028;-61
2022/05/20 00:06:38;;;;;;;8.48;3.95;;;21.60;38.10;;;;;;5087901;28;20030;-63
2022/05/20 00:09:04;;;;;;;9.07;4.03;;;21.60;38.10;;;;;;5090468;28;20107;-63
2022/05/20 00:11:29;;;;;;;11.50;3.58;;;21.60;38.30;;;;;;5078143;28;20059;-63
2022/05/20 00:13:56;;;;;;;10.70;3.80;;;21.50;38.50;;;;;;5088968;28;20030;-62
2022/05/20 00:16:21;;;;;;;10.10;3.40;;;21.50;38.70;;;;;;5085531;28;20024;-63
2022/05/20 00:18:47;;;;;;;10.05;3.33;;;21.50;38.90;;;;;;5068723;28;20138;-63
2022/05/20 00:21:13;;;;;;;8.63;2.90;;;21.40;39.10;;;;;;5091691;28;20032;-60
2022/05/20 00:23:39;;;;;;;10.55;2.85;;;21.40;39.20;;;;;;5091844;28;20024;-64
2022/05/20 00:26:05;;;;;;;8.80;3.05;;;21.40;39.50;;;;;;5073985;28;20043;-63
2022/05/20 00:28:31;;;;;;;11.88;3.13;;;21.30;39.60;;;;;;5083239;28;20473;-63
2022/05/20 00:31:06;;;;;;;11.30;3.28;;;21.30;39.60;;;;;;5091789;28;20122;-63
2022/05/20 00:33:34;;;;;;;13.00;3.38;;;21.30;39.80;;;;;;5090244;28;20020;-63
2022/05/20 00:35:59;;;;;;;12.20;4.32;;;21.30;39.90;;;;;;5090635;28;20055;-65
2022/05/20 00:38:26;;;;;;;7.28;3.20;;;21.20;40.00;;;;;;5067989;28;20063;-63
2022/05/20 00:40:54;;;;;;;8.07;3.30;;;21.20;40.10;;;;;;5091905;28;20469;-65
2022/05/20 00:43:26;;;;;;;8.63;3.00;;;21.10;40.30;;;;;;5087225;28;20082;-63
2022/05/20 00:45:53;;;;;;;9.05;3.05;;;21.10;40.40;;;;;;5053828;28;20389;-64
2022/05/20 00:48:19;;;;;;;7.43;3.20;;;21.00;40.40;;;;;;5077764;28;20024;-67
2022/05/20 00:50:51;;;;;;;6.93;2.70;;;21.00;40.50;;;;;;5083029;28;20369;-63
2022/05/20 00:53:20;;;;;;;5.05;2.35;;;20.90;40.80;;;;;;5080533;28;20035;-63
2022/05/20 00:55:46;;;;;;;9.02;3.58;;;20.90;40.80;;;;;;5078210;28;20111;-63
2022/05/20 00:58:20;;;;;;;8.68;2.60;;;20.90;40.90;;;;;;5084023;28;20515;-61
2022/05/20 01:00:50;;;;;;;8.20;2.80;;;20.80;41.10;;;;;;5088374;28;20070;-65
2022/05/20 01:03:20;;;;;;;8.35;2.67;;;20.80;41.20;;;;;;5079021;28;20027;-63
2022/05/20 01:05:49;;;;;;;4.75;2.50;;;20.70;41.20;;;;;;5088509;28;20028;-63
2022/05/20 01:08:18;;;;;;;7.80;2.63;;;20.60;41.30;;;;;;5078012;28;20024;-61
2022/05/20 01:10:44;;;;;;;14.35;2.55;;;20.60;41.40;;;;;;5085851;28;20020;-64
2022/05/20 01:13:12;;;;;;;12.10;2.83;;;20.60;41.50;;;;;;5083735;28;20020;-63
2022/05/20 01:15:38;;;;;;;7.75;2.30;;;20.60;41.60;;;;;;5089892;28;20020;-65
2022/05/20 01:18:04;;;;;;;10.40;2.58;;;20.60;41.60;;;;;;5088880;28;20028;-65
2022/05/20 01:20:33;;;;;;;6.55;2.45;;;20.60;41.60;;;;;;5072051;28;20024;-63
2022/05/20 01:23:00;;;;;;;7.07;2.30;;;20.50;41.60;;;;;;5090359;28;20503;-62
2022/05/20 01:25:28;;;;;;;5.78;2.15;;;20.50;41.80;;;;;;5059876;28;20523;-62
2022/05/20 01:27:53;;;;;;;5.82;2.35;;;20.50;41.90;;;;;;5087125;28;20374;-63
2022/05/20 01:30:25;;;;;;;7.38;2.30;;;20.50;41.80;;;;;;5077978;28;20016;-62
2022/05/20 01:32:51;;;;;;;4.55;2.17;;;20.50;41.90;;;;;;5090924;28;20469;-63
2022/05/20 01:35:27;;;;;;;6.43;2.08;;;20.50;41.80;;;;;;5090438;28;20034;-64
2022/05/20 01:37:52;;;;;;;5.40;2.17;;;20.50;41.80;;;;;;5083629;28;20024;-65
2022/05/20 01:40:18;;;;;;;7.00;2.10;;;20.50;41.80;;;;;;5080920;28;20026;-63
2022/05/20 01:42:59;;;;;;;8.38;2.30;;;20.50;41.90;;;;;;5089257;28;20074;-64
2022/05/20 01:45:32;;;;;;;6.00;2.30;;;20.50;42.00;;;;;;5065104;28;20032;-64
2022/05/20 01:48:21;;;;;;;5.22;2.17;;;20.40;41.90;;;;;;5087889;28;20035;-63
2022/05/20 01:50:53;;;;;;;5.43;2.47;;;20.50;41.80;;;;;;5076247;28;20518;-64
2022/05/20 01:53:38;;;;;;;5.20;2.40;;;20.50;41.80;;;;;;5089898;28;20012;-63
2022/05/20 01:56:12;;;;;;;9.45;2.33;;;20.50;41.90;;;;;;5066455;28;20028;-62
2022/05/20 01:59:02;;;;;;;7.53;2.53;;;20.40;41.90;;;;;;5089811;28;20157;-63
2022/05/20 02:01:35;;;;;;;14.18;2.70;;;20.50;42.00;;;;;;5087524;28;20374;-63
2022/05/20 02:04:06;;;;;;;7.55;2.33;;;20.50;41.90;;;;;;5060834;28;20118;-62
2022/05/20 02:06:44;;;;;;;5.70;2.53;;;20.40;42.00;;;;;;5089316;28;20047;-63
2022/05/20 02:09:18;;;;;;;8.18;2.55;;;20.40;42.10;;;;;;5063881;28;20024;-66
2022/05/20 02:11:45;;;;;;;10.63;2.67;;;20.50;42.10;;;;;;5069482;28;20032;-63
2022/05/20 02:14:14;;;;;;;7.40;2.55;;;20.50;42.00;;;;;;5080286;28;20021;-62
2022/05/20 02:16:45;;;;;;;7.63;2.33;;;20.50;42.00;;;;;;5078643;28;20095;-64
2022/05/20 02:19:27;;;;;;;8.98;2.10;;;20.60;42.00;;;;;;5088438;28;20020;-63
2022/05/20 02:21:56;;;;;;;6.45;2.55;;;20.70;41.70;;;;;;5080962;28;20470;-63
2022/05/20 02:24:26;;;;;;;5.72;2.30;;;20.70;41.70;;;;;;5069692;28;20055;-63
2022/05/20 02:26:57;;;;;;;5.88;2.45;;;20.70;42.20;;;;;;5082443;28;20436;-63
2022/05/20 02:29:29;;;;;;;7.43;2.55;;;20.70;41.50;;;;;;5071028;28;20019;-64
2022/05/20 02:32:10;;;;;;;7.88;1.98;;;20.70;41.50;;;;;;5072783;28;20024;-63
2022/05/20 02:34:35;;;;;;;4.10;2.13;;;20.70;41.60;;;;;;5083328;28;20424;-62
2022/05/20 02:37:18;;;;;;;7.60;2.15;;;20.70;41.50;;;;;;5094047;28;20499;-62
2022/05/20 02:39:44;;;;;;;4.78;2.28;;;20.70;41.60;;;;;;5084992;28;20381;-64
2022/05/20 02:42:10;;;;;;;5.22;2.15;;;20.70;41.60;;;;;;5092323;28;20016;-63
2022/05/20 02:44:35;;;;;;;10.05;2.25;;;20.70;41.60;;;;;;5089870;28;20048;-62
2022/05/20 02:47:01;;;;;;;9.80;2.40;;;20.70;41.80;;;;;;5076002;28;20384;-64
2022/05/20 02:49:26;;;;;;;11.27;2.47;;;20.70;41.90;;;;;;5092977;28;20555;-63
2022/05/20 02:51:53;;;;;;;4.65;2.45;;;20.70;41.80;;;;;;5075589;28;20027;-63
2022/05/20 02:54:19;;;;;;;6.28;2.55;;;20.80;41.90;;;;;;5072944;28;20457;-62
2022/05/20 02:56:44;;;;;;;7.22;2.95;;;20.80;41.90;;;;;;5062863;28;20039;-62
2022/05/20 03:04:40;;;;;;;9.05;2.80;;;20.80;42.00;;;;;;5084799;28;20049;-62
2022/05/20 03:07:06;;;;;;;4.95;2.30;;;20.70;42.20;;;;;;5081760;28;20392;-62
2022/05/20 03:09:32;;;;;;;7.53;2.30;;;20.70;42.40;;;;;;5056584;28;20032;-62
2022/05/20 03:11:57;;;;;;;7.30;2.30;;;20.70;42.40;;;;;;5086537;28;20024;-63
2022/05/20 03:14:24;;;;;;;9.25;2.47;;;20.70;42.40;;;;;;5088280;28;20020;-62
2022/05/20 03:16:51;;;;;;;8.27;2.50;;;20.70;42.50;;;;;;5078724;28;20021;-63
2022/05/20 03:19:36;;;;;;;8.23;2.20;;;20.70;42.60;;;;;;5089930;28;20056;-61
2022/05/20 03:22:04;;;;;;;6.70;2.45;;;20.80;42.60;;;;;;5090560;28;20373;-64
2022/05/20 03:24:30;;;;;;;7.95;2.13;;;20.80;42.50;;;;;;5081328;28;20064;-63
2022/05/20 03:26:57;;;;;;;8.13;2.30;;;20.90;42.50;;;;;;5090214;28;20056;-63
2022/05/20 03:29:23;;;;;;;9.15;2.42;;;20.90;42.50;;;;;;5074363;28;20508;-63
2022/05/20 03:31:49;;;;;;;9.23;2.75;;;20.90;42.40;;;;;;5090011;28;20020;-63
2022/05/20 03:34:15;;;;;;;10.82;2.45;;;20.90;42.30;;;;;;5069851;28;20432;-63
2022/05/20 03:37:01;;;;;;;9.00;2.22;;;21.00;42.50;;;;;;5085861;28;20099;-63
2022/05/20 03:39:26;;;;;;;6.80;2.42;;;20.90;42.50;;;;;;5090866;28;20012;-63
2022/05/20 03:41:52;;;;;;;9.05;2.55;;;20.90;42.40;;;;;;5090581;28;20177;-64
2022/05/20 03:44:18;;;;;;;8.82;2.92;;;20.90;42.50;;;;;;5074100;28;20093;-61
2022/05/20 03:46:47;;;;;;;8.40;2.28;;;20.90;42.40;;;;;;5090981;28;20438;-63
2022/05/20 03:49:14;;;;;;;6.45;2.25;;;20.90;42.40;;;;;;5090607;28;20020;-65
2022/05/20 03:51:40;;;;;;;4.38;2.10;;;20.90;42.30;;;;;;5089609;28;20066;-63
2022/05/20 03:54:07;;;;;;;9.32;2.30;;;20.80;42.10;;;;;;5085246;28;20464;-63
2022/05/20 03:56:33;;;;;;;7.28;2.20;;;20.80;42.10;;;;;;5086907;28;20031;-63
2022/05/20 03:58:59;;;;;;;8.43;2.60;;;20.80;42.10;;;;;;5092627;28;20416;-63
2022/05/20 04:04:09;;;;;;;7.75;2.13;;;21.00;41.70;;;;;;5083761;28;20047;-63
2022/05/20 04:06:34;;;;;;;5.97;2.40;;;21.10;41.50;;;;;;5058523;28;20028;-61
2022/05/20 04:09:00;;;;;;;6.53;2.45;;;21.10;41.30;;;;;;5091614;28;20024;-62
2022/05/20 04:11:27;;;;;;;11.27;2.60;;;21.00;41.40;;;;;;5091335;28;20385;-62
2022/05/20 04:13:53;;;;;;;6.82;2.25;;;21.10;41.30;;;;;;5091227;28;20024;-62
2022/05/20 04:16:19;;;;;;;7.10;2.40;;;21.20;41.10;;;;;;5076493;28;20016;-62
2022/05/20 04:18:45;;;;;;;7.45;2.30;;;21.30;41.10;;;;;;5091204;28;20024;-64
2022/05/20 04:21:13;;;;;;;5.60;2.05;;;21.30;41.00;;;;;;5071577;28;20358;-63
2022/05/20 04:23:39;;;;;;;13.70;2.83;;;21.50;40.80;;;;;;5066082;28;20049;-63
2022/05/20 04:26:07;;;;;;;13.02;3.00;;;21.60;40.80;;;;;;5090856;28;20028;-62
2022/05/20 04:28:33;;;;;;;7.38;2.83;;;21.60;40.70;;;;;;5055847;28;20033;-62
2022/05/20 04:31:02;;;;;;;5.90;2.50;;;21.60;40.70;;;;;;5091874;28;20012;-64
2022/05/20 04:33:28;;;;;;;12.02;2.50;;;21.60;40.50;;;;;;5090058;28;20020;-62
2022/05/20 04:35:54;;;;;;;9.27;2.83;;;21.70;40.60;;;;;;5078237;28;20457;-62
2022/05/20 04:38:20;;;;;;;20.67;4.03;;;21.80;40.60;;;;;;5089288;28;20023;-60
2022/05/20 04:49:06;;;;;;;10.82;3.22;;;22.20;39.90;;;;;;5083573;28;20077;-63
2022/05/20 04:57:07;;;;;;;;;;;22.60;39.20;;;;;;5086697;28;20500;-63
2022/05/20 04:59:38;;;;;;;9.30;3.10;;;22.80;38.60;;;;;;5070993;28;19912;-63
2022/05/20 05:02:05;;;;;;;13.50;3.00;;;22.80;38.20;;;;;;5071477;28;20098;-63
2022/05/20 05:04:30;;;;;;;10.00;2.65;;;22.60;38.50;;;;;;5080628;28;20032;-64
2022/05/20 05:06:57;;;;;;;12.38;3.17;;;22.50;38.50;;;;;;5064069;28;20024;-63
2022/05/20 05:09:23;;;;;;;10.30;3.17;;;22.50;38.40;;;;;;5081894;28;20093;-62
2022/05/20 05:11:49;;;;;;;15.70;3.33;;;22.60;38.40;;;;;;5081206;28;20454;-62
2022/05/20 05:14:15;;;;;;;13.05;3.22;;;22.70;38.00;;;;;;5076385;28;20461;-62
2022/05/20 05:16:42;;;;;;;11.70;2.90;;;22.60;38.10;;;;;;5083285;28;20020;-62
2022/05/20 05:19:09;;;;;;;11.00;2.75;;;22.50;38.20;;;;;;5082885;28;20019;-62
2022/05/20 05:21:35;;;;;;;14.98;3.05;;;22.60;38.30;;;;;;5078976;28;20031;-65
2022/05/20 05:24:02;;;;;;;10.80;2.75;;;22.70;38.20;;;;;;5081475;28;20027;-64
2022/05/20 05:26:32;;;;;;;11.77;3.17;;;22.80;37.90;;;;;;5079757;28;20024;-62
2022/05/20 05:28:59;;;;;;;17.80;3.22;;;23.00;37.60;;;;;;5080796;28;20051;-63
2022/05/20 05:31:26;;;;;;;23.80;3.50;;;23.20;37.40;;;;;;5078271;28;20114;-63
2022/05/20 05:33:53;;;;;;;16.73;4.13;;;23.20;37.30;;;;;;5090150;28;20032;-63
2022/05/20 05:36:19;;;;;;;18.92;3.40;;;23.20;37.30;;;;;;5085646;28;20377;-63
2022/05/20 05:38:46;;;;;;;18.13;2.50;;;23.10;37.30;;;;;;5083918;28;20036;-63
2022/05/20 05:41:30;;;;;;;10.00;2.47;;;23.10;37.40;;;;;;5087318;28;20031;-63
2022/05/20 05:44:01;;;;;;;8.25;3.10;;;22.90;37.70;;;;;;5082233;28;21372;-64
2022/05/20 05:46:27;;;;;;;15.30;3.67;;;23.10;37.60;;;;;;5067714;28;20052;-61
2022/05/20 05:48:52;;;;;;;9.60;3.17;;;23.30;37.50;;;;;;5080739;28;20469;-64
2022/05/20 05:51:18;;;;;;;36.90;6.47;;;23.60;37.20;;;;;;5083182;28;20024;-62
2022/05/20 05:53:43;;;;;;;19.98;3.58;;;23.80;37.10;;;;;;5079456;28;20067;-64
2022/05/20 05:56:09;;;;;;;13.65;3.38;;;24.00;36.90;;;;;;5079156;28;20024;-64
2022/05/20 05:58:37;;;;;;;13.15;3.30;;;24.10;36.90;;;;;;5073459;28;20407;-63
2022/05/20 06:01:03;;;;;;;10.15;3.45;;;24.20;36.80;;;;;;5086821;28;20383;-63
2022/05/20 06:03:29;;;;;;;8.60;2.92;;;24.20;36.80;;;;;;5077751;28;20048;-62
2022/05/20 06:05:55;;;;;;;11.95;3.42;;;24.30;36.70;;;;;;5058467;28;20095;-62
2022/05/20 06:08:21;;;;;;;9.25;3.20;;;24.50;36.70;;;;;;5071157;28;20405;-63
2022/05/20 06:10:47;;;;;;;11.57;4.18;;;24.70;36.60;;;;;;5085531;28;20035;-62
2022/05/20 06:13:20;;;;;;;8.60;3.53;;;24.80;36.40;;;;;;5074250;28;20020;-62
2022/05/20 06:15:45;;;;;;;21.27;4.50;;;24.90;36.30;;;;;;5080601;28;20264;-63
2022/05/20 06:18:11;;;;;;;17.88;4.05;;;25.10;36.20;;;;;;5086392;28;20575;-65
2022/05/20 06:20:37;;;;;;;16.65;4.00;;;25.50;36.00;;;;;;5081637;28;20508;-64
2022/05/20 06:23:03;;;;;;;15.38;3.97;;;25.60;35.90;;;;;;5078620;28;20030;-62
2022/05/20 06:25:29;;;;;;;13.57;3.78;;;25.80;35.70;;;;;;5073861;28;20033;-63
2022/05/20 06:28:08;;;;;;;21.00;3.78;;;26.00;35.50;;;;;;5081587;28;20073;-65
2022/05/20 06:30:35;;;;;;;17.85;4.20;;;26.20;35.20;;;;;;5078322;28;20032;-63
2022/05/20 06:33:02;;;;;;;14.75;3.90;;;26.40;34.90;;;;;;5087312;28;20023;-61
2022/05/20 06:40:58;;;;;;;18.40;5.10;;;27.00;34.50;;;;;;5084950;28;20108;-63
2022/05/20 06:43:26;;;;;;;15.70;5.10;;;27.30;33.90;;;;;;5045925;28;20135;-61
2022/05/20 06:45:58;;;;;;;21.60;7.40;;;27.60;33.70;;;;;;5068811;28;20062;-63
2022/05/20 06:48:46;;;;;;;34.60;5.90;;;27.70;33.70;;;;;;5079664;28;20092;-62
2022/05/20 06:51:15;;;;;;;27.80;5.40;;;27.90;33.60;;;;;;5081006;28;20082;-63
2022/05/20 06:53:41;;;;;;;28.50;5.82;;;27.90;33.60;;;;;;5079332;28;20024;-63
2022/05/20 06:56:07;;;;;;;27.48;4.75;;;28.10;33.60;;;;;;5054066;28;20031;-64
2022/05/20 06:58:34;;;;;;;19.00;4.70;;;28.60;33.00;;;;;;5081369;28;20473;-62
2022/05/20 07:01:01;;;;;;;16.67;5.30;;;29.20;32.80;;;;;;5077215;28;20066;-65
2022/05/20 07:03:28;;;;;;;33.33;5.35;;;30.40;32.10;;;;;;5071829;28;20040;-62
2022/05/20 07:05:54;;;;;;;23.65;5.13;;;32.20;30.00;;;;;;5066295;28;20035;-65
2022/05/20 07:08:20;;;;;;;15.43;4.28;;;32.50;29.50;;;;;;5074901;28;20441;-64
2022/05/20 07:10:46;;;;;;;13.30;4.35;;;32.20;29.70;;;;;;5081714;28;20024;-63
2022/05/20 07:13:12;;;;;;;17.60;4.70;;;31.90;30.40;;;;;;5067641;28;20067;-63
2022/05/20 07:15:38;;;;;;;17.63;5.20;;;34.30;29.50;;;;;;5080588;28;20021;-61
2022/05/20 07:18:03;;;;;;;14.02;4.40;;;37.80;27.10;;;;;;5089651;28;20381;-61
2022/05/20 07:20:29;;;;;;;21.60;5.82;;;39.20;25.60;;;;;;5072144;28;20474;-62
2022/05/20 07:22:55;;;;;;;24.08;6.07;;;39.60;25.60;;;;;;5081859;28;20032;-63
2022/05/20 07:25:21;;;;;;;15.20;5.20;;;42.10;24.60;;;;;;5069147;28;20794;-64
2022/05/20 07:27:47;;;;;;;22.42;5.55;;;44.60;23.50;;;;;;5085285;28;20035;-64
2022/05/20 07:30:14;;;;;;;28.60;6.20;;;46.50;22.60;;;;;;5084144;28;20087;-64
2022/05/20 07:32:40;;;;;;;17.20;5.50;;;48.20;21.80;;;;;;5082021;28;20078;-64
2022/05/20 07:35:09;;;;;;;29.48;5.38;;;48.90;21.50;;;;;;5088154;28;20472;-61
2022/05/20 07:37:35;;;;;;;33.92;7.25;;;50.10;21.20;;;;;;5064757;28;20028;-63
2022/05/20 07:40:02;;;;;;;34.72;6.80;;;51.50;20.90;;;;;;5074438;28;20013;-64
2022/05/20 07:42:28;;;;;;;19.40;6.22;;;52.70;20.40;;;;;;5061539;28;20077;-62
2022/05/20 07:44:54;;;;;;;19.73;5.88;;;53.00;20.20;;;;;;5059484;28;20044;-64
2022/05/20 07:47:20;;;;;;;29.85;6.78;;;53.10;20.20;;;;;;5064483;28;20112;-64
2022/05/20 07:49:47;;;;;;;23.52;6.85;;;53.90;20.00;;;;;;5083018;28;20036;-62
2022/05/20 07:53:19;;;;;;;27.48;7.00;;;54.60;19.70;;;;;;5067724;28;20120;-62
2022/05/20 07:55:04;;;;;;;22.52;6.03;;;55.20;19.60;;;;;;5074565;28;20107;-63
2022/05/20 07:57:31;;;;;;;23.88;6.63;;;55.50;19.60;;;;;;5058090;28;20020;-63
2022/05/20 07:59:56;;;;;;;40.90;6.85;;;56.00;19.60;;;;;;5074830;28;20020;-65
2022/05/20 08:02:26;;;;;;;23.38;5.72;;;56.50;19.40;;;;;;5078448;28;20401;-64
2022/05/20 08:04:55;;;;;;;18.40;5.50;;;56.30;19.40;;;;;;5088509;28;20099;-68
2022/05/20 08:07:33;;;;;;;16.20;5.80;;;56.00;19.60;;;;;;5078257;28;20017;-64
2022/05/20 08:10:00;;;;;;;18.75;7.28;;;56.30;19.50;;;;;;5085074;28;20012;-59
2022/05/20 08:12:26;;;;;;;34.10;6.78;;;56.60;19.50;;;;;;5060573;28;20119;-63
2022/05/20 08:14:54;;;;;;;17.95;6.53;;;56.90;19.30;;;;;;5077999;28;20062;-65
2022/05/20 08:17:27;;;;;;;17.85;6.13;;;56.80;19.40;;;;;;5075030;28;20040;-64
2022/05/20 08:19:55;;;;;;;21.83;5.95;;;56.70;19.50;;;;;;5087318;28;20486;-63
2022/05/20 08:22:22;;;;;;;19.60;5.75;;;56.80;19.40;;;;;;5081055;28;20063;-63
2022/05/20 08:24:57;;;;;;;20.20;6.28;;;56.90;19.60;;;;;;5064969;28;20492;-62
2022/05/20 08:27:25;;;;;;;13.35;4.85;;;57.50;20.10;;;;;;5076520;28;20418;-63
2022/05/20 08:29:51;;;;;;;15.02;6.13;;;58.10;19.30;;;;;;5080636;28;20053;-64
2022/05/20 08:32:17;;;;;;;18.00;5.68;;;56.20;19.50;;;;;;5066718;28;20040;-61
2022/05/20 08:34:44;;;;;;;29.05;7.35;;;53.30;20.20;;;;;;5070142;28;20107;-66
2022/05/20 08:37:11;;;;;;;20.67;6.82;;;52.40;21.00;;;;;;5059364;28;20024;-65
2022/05/20 08:39:36;;;;;;;18.48;6.15;;;54.10;20.70;;;;;;5078561;28;20032;-66
2022/05/20 08:42:04;;;;;;;18.13;5.88;;;56.00;20.20;;;;;;5068885;28;20103;-64
2022/05/20 08:44:49;;;;;;;19.10;7.07;;;56.70;19.80;;;;;;5078665;28;20139;-66
2022/05/20 08:47:21;;;;;;;19.75;6.78;;;56.60;20.00;;;;;;5069255;28;20031;-65
2022/05/20 08:49:49;;;;;;;24.90;7.75;;;57.30;19.80;;;;;;5084440;28;20054;-66
2022/05/20 08:52:14;;;;;;;25.42;7.68;;;57.90;19.70;;;;;;5055787;28;20090;-66
2022/05/20 08:54:43;;;;;;;21.00;6.47;;;58.00;19.70;;;;;;5075778;28;20024;-66
2022/05/20 08:57:20;;;;;;;31.63;8.15;;;57.60;19.60;;;;;;5083316;28;22551;-65
2022/05/20 08:59:47;;;;;;;17.52;5.78;;;57.20;19.60;;;;;;5083234;28;20095;-67
2022/05/20 09:02:13;;;;;;;9.50;4.95;;;56.70;19.70;;;;;;5077766;28;20038;-66
2022/05/20 09:04:39;;;;;;;12.23;4.97;;;56.40;19.70;;;;;;5074156;28;20032;-68
2022/05/20 09:07:10;;;;;;;19.33;4.50;;;56.10;19.70;;;;;;5075623;28;20048;-67
2022/05/20 09:10:01;;;;;;;12.82;4.53;;;55.80;19.70;;;;;;5078886;28;20100;-65
2022/05/20 09:12:36;;;;;;;9.95;4.13;;;55.00;19.80;;;;;;5081623;28;20024;-68
2022/05/20 09:18:30;;;;;;;15.88;4.55;;;48.60;21.70;;;;;;5084349;28;20543;-66
2022/05/20 09:20:56;;;;;;;8.65;3.80;;;45.10;23.40;;;;;;5075854;28;20029;-67
2022/05/20 09:23:23;;;;;;;12.85;4.20;;;42.30;24.80;;;;;;5081449;28;20028;-67
2022/05/20 09:25:57;;;;;;;20.48;8.02;;;40.40;25.90;;;;;;5063095;28;20028;-67
2022/05/20 09:28:58;;;;;;;23.30;7.78;;;38.90;27.10;;;;;;5084492;28;20017;-67
2022/05/20 09:31:44;;;;;;;23.88;6.68;;;37.60;28.00;;;;;;5062874;28;20040;-68
2022/05/20 09:34:20;;;;;;;19.50;5.15;;;36.50;29.00;;;;;;5083680;28;20024;-66
2022/05/20 09:37:10;;;;;;;15.02;4.70;;;35.80;29.60;;;;;;5064348;28;20032;-67
2022/05/20 09:39:41;;;;;;;17.20;5.05;;;35.20;30.20;;;;;;5060215;28;20034;-66
2022/05/20 09:42:17;;;;;;;20.38;5.68;;;34.70;30.80;;;;;;5082242;28;20059;-66
2022/05/20 09:44:47;;;;;;;19.35;4.40;;;34.10;31.50;;;;;;5067179;28;20048;-68
2022/05/20 09:47:34;;;;;;;20.95;4.68;;;33.70;32.00;;;;;;5086279;28;20058;-65
2022/05/20 09:50:28;;;;;;;21.33;5.55;;;33.50;32.50;;;;;;5075744;28;20028;-67
2022/05/20 09:52:57;;;;;;;19.45;8.02;;;33.20;33.00;;;;;;5069705;28;20421;-67
2022/05/20 09:55:24;;;;;;;19.52;5.35;;;33.00;33.30;;;;;;5077079;28;20033;-67
2022/05/20 09:57:53;;;;;;;22.75;5.25;;;32.70;34.50;;;;;;5080440;28;20016;-67
2022/05/20 10:00:32;;;;;;;25.48;4.65;;;32.40;33.90;;;;;;5057087;28;20162;-66
2022/05/20 10:03:10;;;;;;;11.63;4.50;;;32.40;34.10;;;;;;5074377;28;20017;-66
2022/05/20 10:06:18;;;;;;;14.05;3.90;;;32.30;33.90;;;;;;5080100;28;20031;-65
2022/05/20 10:09:27;;;;;;;12.27;4.63;;;32.10;33.90;;;;;;5070811;28;20055;-66
2022/05/20 10:12:17;;;;;;;12.40;4.57;;;32.10;34.20;;;;;;5082141;28;20102;-66
2022/05/20 10:15:21;;;;;;;11.50;4.13;;;32.30;34.30;;;;;;5061430;28;20129;-66
2022/05/20 10:18:03;;;;;;;9.68;3.60;;;32.10;34.40;;;;;;5005199;28;20029;-66
2022/05/20 10:20:58;;;;;;;11.57;4.97;;;32.20;34.60;;;;;;4990615;28;20026;-65
2022/05/20 10:23:48;;;;;;;10.55;3.78;;;32.30;34.70;;;;;;4970715;28;20388;-67
2022/05/20 10:26:19;;;;;;;9.00;2.90;;;32.30;34.30;;;;;;5002410;28;20023;-67
2022/05/20 10:34:32;;;;;;;11.15;5.82;;;32.30;34.20;;;;;;5007597;28;20100;-66
2022/05/20 10:37:09;;;;;;;8.48;3.45;;;32.50;34.20;;;;;;5005780;28;20125;-65
2022/05/20 10:40:07;;;;;;;6.18;3.33;;;32.50;34.30;;;;;;5004353;28;20025;-66
2022/05/20 10:43:07;;;;;;;9.40;6.03;;;32.60;34.10;;;;;;4961852;28;20486;-67
2022/05/20 10:48:56;;;;;;;6.78;4.05;;;32.60;33.90;;;;;;5046210;28;20075;-66
2022/05/20 10:51:54;;;;;;;14.40;6.65;;;32.60;33.90;;;;;;5057202;28;20032;-65
2022/05/20 10:54:59;;;;;;;7.43;3.65;;;32.60;34.00;;;;;;5073853;28;20028;-66
2022/05/20 10:58:03;;;;;;;8.63;3.17;;;32.50;34.00;;;;;;5062353;28;20033;-65
2022/05/20 11:00:52;;;;;;;8.32;3.70;;;32.50;34.10;;;;;;5073962;28;20036;-65
2022/05/20 11:03:32;;;;;;;11.90;5.80;;;32.60;34.20;;;;;;5072327;28;20490;-66
2022/05/20 11:06:35;;;;;;;22.50;6.43;;;32.80;34.00;;;;;;5087566;28;20024;-65
2022/05/20 11:09:13;;;;;;;9.57;3.05;;;32.80;33.90;;;;;;5077442;28;20119;-66
2022/05/20 11:11:59;;;;;;;8.88;3.50;;;32.80;33.80;;;;;;5091898;28;20377;-65
2022/05/20 11:14:44;;;;;;;5.70;3.08;;;32.80;33.80;;;;;;5073571;28;20528;-66
2022/05/20 11:17:21;;;;;;;7.70;3.40;;;32.90;33.80;;;;;;5092160;28;20021;-66
2022/05/20 11:20:32;;;;;;;7.07;2.97;;;32.80;33.90;;;;;;5091326;28;20116;-65
2022/05/20 11:23:26;;;;;;;6.72;3.78;;;32.70;34.00;;;;;;5055324;28;20195;-65
2022/05/20 11:26:10;;;;;;;9.45;3.58;;;32.70;34.10;;;;;;5083425;28;20085;-67
2022/05/20 11:28:36;;;;;;;7.57;3.05;;;32.70;33.90;;;;;;5088586;28;20056;-66
2022/05/20 11:31:51;;;;;;;4.85;3.08;;;32.60;33.90;;;;;;5091176;28;20476;-65
2022/05/20 11:34:55;;;;;;;11.45;3.75;;;32.50;34.10;;;;;;5060711;28;20036;-67
2022/05/20 11:37:21;;;;;;;;;;;32.60;34.20;;;;;;5042739;28;20108;-66
2022/05/20 11:39:57;;;;;;;5.10;3.00;;;33.00;34.00;;;;;;5082825;28;20333;-65
2022/05/20 11:42:46;;;;;;;91.53;80.97;;;33.00;34.00;;;;;;5091926;28;20093;-66
2022/05/20 11:45:16;;;;;;;26.05;11.70;;;33.00;33.80;;;;;;5080636;28;20469;-66
2022/05/20 11:48:04;;;;;;;12.15;4.75;;;33.10;34.00;;;;;;5091552;28;20075;-66
2022/05/20 11:50:51;;;;;;;9.82;4.60;;;33.10;33.80;;;;;;5091667;28;20012;-65
2022/05/20 11:53:55;;;;;;;14.65;4.00;;;33.00;33.90;;;;;;5071857;28;20112;-66
2022/05/20 11:56:37;;;;;;;19.80;5.32;;;33.20;34.00;;;;;;5073639;28;20500;-67
2022/05/20 11:59:06;;;;;;;15.00;11.05;;;33.20;33.80;;;;;;5090414;28;20024;-66
2022/05/20 12:01:35;;;;;;;8.35;3.70;;;33.30;33.70;;;;;;5073347;28;20103;-68
2022/05/20 12:04:06;;;;;;;6.22;2.92;;;33.20;33.90;;;;;;5091197;28;20024;-66
2022/05/20 12:06:36;;;;;;;8.77;2.88;;;33.20;33.70;;;;;;5090003;28;20023;-66
2022/05/20 12:09:03;;;;;;;11.25;3.55;;;33.30;33.50;;;;;;5088201;28;20035;-66
2022/05/20 12:11:37;;;;;;;5.70;3.08;;;33.30;33.40;;;;;;5071896;28;20062;-66
2022/05/20 12:14:16;;;;;;;;;;;33.30;32.90;;;;;;5090085;28;20100;-66
2022/05/20 12:17:03;;;;;;;11.98;3.83;;;33.30;33.10;;;;;;5085150;28;19904;-65
2022/05/20 12:25:33;;;;;;;6.13;3.20;;;33.30;33.40;;;;;;5091792;28;20038;-66
2022/05/20 12:28:21;;;;;;;10.05;3.88;;;33.30;33.50;;;;;;5080709;28;20028;-67
2022/05/20 12:31:22;;;;;;;5.53;3.40;;;33.30;33.60;;;;;;5068017;28;20032;-66
2022/05/20 12:34:06;;;;;;;13.55;4.30;;;33.30;33.40;;;;;;5086480;28;20039;-65
2022/05/20 12:36:32;;;;;;;6.82;3.47;;;33.60;33.30;;;;;;5087337;28;20029;-66
2022/05/20 12:39:06;;;;;;;18.58;3.75;;;33.70;32.70;;;;;;5090401;28;20381;-65
2022/05/20 12:41:44;;;;;;;13.25;3.13;;;33.60;32.50;;;;;;5084200;28;20366;-66
2022/05/20 12:44:16;;;;;;;15.73;4.13;;;33.60;32.10;;;;;;5062857;28;20104;-66
2022/05/20 12:47:02;;;;;;;13.73;4.43;;;33.60;32.30;;;;;;5064412;28;20024;-66
2022/05/20 12:49:34;;;;;;;6.65;3.78;;;33.80;32.70;;;;;;5068152;28;20032;-66
2022/05/20 12:52:13;;;;;;;13.73;4.60;;;33.90;32.60;;;;;;5086290;28;20134;-65
2022/05/20 12:54:43;;;;;;;9.75;4.25;;;34.00;32.80;;;;;;5087017;28;20172;-66
2022/05/20 12:57:14;;;;;;;8.50;3.50;;;34.10;32.80;;;;;;5086550;28;20474;-66
2022/05/20 12:59:40;;;;;;;9.88;4.03;;;34.10;33.10;;;;;;5064555;28;20111;-67
2022/05/20 13:02:11;;;;;;;12.30;4.30;;;34.00;33.10;;;;;;5085306;28;20158;-66
2022/05/20 13:04:43;;;;;;;11.65;4.43;;;34.10;33.30;;;;;;5084197;28;20040;-66
2022/05/20 13:07:16;;;;;;;9.10;3.15;;;34.10;33.10;;;;;;5084615;28;20122;-65
2022/05/20 13:09:43;;;;;;;9.48;3.90;;;34.00;32.90;;;;;;5083638;28;20159;-65
2022/05/20 13:12:18;;;;;;;8.27;3.30;;;34.00;33.30;;;;;;5082470;28;20223;-66
2022/05/20 13:14:46;;;;;;;6.13;3.13;;;33.90;33.30;;;;;;5082782;28;20056;-66
2022/05/20 13:17:13;;;;;;;7.97;3.63;;;33.70;33.40;;;;;;5070686;28;20028;-66
2022/05/20 13:19:47;;;;;;;9.85;4.30;;;33.80;33.40;;;;;;5082734;28;20453;-65
2022/05/20 13:22:16;;;;;;;21.92;4.80;;;33.80;33.40;;;;;;5085776;28;20119;-66
2022/05/20 13:24:42;;;;;;;17.38;4.22;;;33.80;33.50;;;;;;5089446;28;20020;-66
2022/05/20 13:27:16;;;;;;;12.77;3.67;;;33.70;33.40;;;;;;5089314;28;20158;-66
2022/05/20 13:29:44;;;;;;;12.90;3.97;;;33.60;33.60;;;;;;5090471;28;20472;-66
2022/05/20 13:32:12;;;;;;;12.23;3.70;;;33.50;34.00;;;;;;5079338;28;20480;-67
2022/05/20 13:34:43;;;;;;;12.50;4.43;;;33.50;34.00;;;;;;5090125;28;20468;-65
2022/05/20 13:37:12;;;;;;;12.30;4.18;;;33.40;34.10;;;;;;5071853;28;20016;-66
2022/05/20 13:39:39;;;;;;;9.55;3.83;;;33.30;34.20;;;;;;5088728;28;20020;-67
2022/05/20 13:42:16;;;;;;;15.80;4.95;;;33.30;34.20;;;;;;5088697;28;20037;-66
2022/05/20 13:44:45;;;;;;;8.02;3.88;;;33.10;34.50;;;;;;5065340;28;20052;-65
2022/05/20 13:50:00;;;;;;;12.25;4.45;;;33.10;34.80;;;;;;5085822;28;20443;-63
2022/05/20 13:52:27;;;;;;;8.05;4.10;;;32.90;34.90;;;;;;5080488;28;20465;-65
2022/05/20 13:55:04;;;;;;;16.33;4.85;;;32.80;35.10;;;;;;5080981;28;20037;-64
2022/05/20 13:57:35;;;;;;;10.65;3.53;;;32.90;35.00;;;;;;5083674;28;20025;-64